Terminal Aerodrome Forecast
Issued by NWS Cleveland, OH

Home | Current Version | Previous Version | Text Only | Print | Product List | Glossary On
Versions: 1 2 3 4 5 6 7 8 9 10 11 12 13 14 15 16 17 18 19
944
FTUS41 KCLE 211144 AAA
TAFERI
TAF AMD
KERI 211144Z 2112/2212 20014G24KT P6SM BKN090
     FM211300 28012G18KT 6SM -SHRA SCT010 OVC060
      TEMPO 2113/2115 3SM -SHRA BR BKN010
     FM211500 29012KT 3SM -RA BR OVC007
     FM212100 34011KT P6SM VCSH SCT010 OVC020
     FM220000 01008KT P6SM SCT030 OVC100
     FM221100 03009KT 4SM -FZRAPLSN BR SCT022 OVC050=

USA.gov is the U.S. government's official web portal to all federal, state and local government web resources and services.